createdAt,value
2023-04-05T00:00:33.527Z,102423.50
2023-04-05T00:03:00.707Z,102421.91
2023-04-05T00:05:31.298Z,102418.69
2023-04-05T00:07:59.490Z,102430.28
2023-04-05T00:10:26.355Z,102424.50
2023-04-05T00:12:53.484Z,102423.03
2023-04-05T00:15:20.428Z,102424.09
2023-04-05T00:17:48.682Z,102416.50
2023-04-05T00:20:16.954Z,102406.22
2023-04-05T00:22:44.902Z,102415.16
2023-04-05T00:25:12.121Z,102419.84
2023-04-05T00:27:39.047Z,102420.97
2023-04-05T00:30:07.058Z,102426.50
2023-04-05T00:32:33.835Z,102417.84
2023-04-05T00:35:02.382Z,102420.59
2023-04-05T00:37:29.129Z,102420.81
2023-04-05T00:39:57.923Z,102414.16
2023-04-05T00:42:24.909Z,102423.16
2023-04-05T00:44:51.818Z,102414.41
2023-04-05T00:47:18.618Z,102419.97
2023-04-05T00:49:46.167Z,102418.53
2023-04-05T00:52:16.378Z,102411.47
2023-04-05T00:54:44.522Z,102403.56
2023-04-05T00:57:12.117Z,102406.41
2023-04-05T00:59:38.858Z,102399.56
2023-04-05T01:02:13.627Z,102394.50
2023-04-05T01:04:50.505Z,102399.88
2023-04-05T01:07:25.963Z,102401.06
2023-04-05T01:09:56.301Z,102398.44
2023-04-05T01:12:27.553Z,102391.56
2023-04-05T01:14:58.129Z,102404.13
2023-04-05T01:17:36.894Z,102396.31
2023-04-05T01:20:11.078Z,102384.09
2023-04-05T01:23:22.973Z,102388.44
2023-04-05T01:26:05.986Z,102383.50
2023-04-05T01:28:52.579Z,102381.81
2023-04-05T01:31:29.553Z,102372.31
2023-04-05T01:34:02.434Z,102373.34
2023-04-05T01:36:34.150Z,102379.59
2023-04-05T01:39:05.069Z,102379.81
2023-04-05T01:41:32.794Z,102376.44
2023-04-05T01:43:59.626Z,102380.00
2023-04-05T01:46:27.743Z,102376.66
2023-04-05T01:48:54.568Z,102376.84
2023-04-05T01:51:21.829Z,102374.66
2023-04-05T01:53:48.562Z,102373.91
2023-04-05T01:56:15.455Z,102372.34
2023-04-05T01:58:47.479Z,102377.72
2023-04-05T02:01:14.096Z,102375.41
2023-04-05T02:03:42.385Z,102371.09
2023-04-05T02:06:09.449Z,102372.22
2023-04-05T02:08:36.205Z,102374.97
2023-04-05T02:11:02.958Z,102367.28
2023-04-05T02:13:30.140Z,102367.50
2023-04-05T02:15:56.885Z,102368.56
2023-04-05T02:18:30.405Z,102359.91
2023-04-05T02:21:04.751Z,102366.97
2023-04-05T02:23:32.968Z,102359.25
2023-04-05T02:25:59.744Z,102358.66
2023-04-05T02:28:27.577Z,102356.44
2023-04-05T02:30:54.596Z,102358.22
2023-04-05T02:33:22.875Z,102360.22
2023-04-05T02:35:50.536Z,102355.78
2023-04-05T02:38:18.856Z,102348.03
2023-04-05T02:40:46.898Z,102338.53
2023-04-05T02:43:14.494Z,102343.91
2023-04-05T02:45:41.472Z,102342.31
2023-04-05T02:48:08.298Z,102345.91
2023-04-05T02:50:35.138Z,102335.59
2023-04-05T02:53:01.847Z,102337.28
2023-04-05T02:55:31.225Z,102341.78
2023-04-05T02:58:00.758Z,102338.31
2023-04-05T03:00:28.307Z,102340.09
2023-04-05T03:02:55.704Z,102340.22
2023-04-05T03:05:22.855Z,102330.66
2023-04-05T03:07:51.997Z,102336.94
2023-04-05T03:10:22.711Z,102331.78
2023-04-05T03:12:51.652Z,102331.88
2023-04-05T03:15:18.431Z,102330.31
2023-04-05T03:17:46.037Z,102330.50
2023-04-05T03:20:15.138Z,102336.59
2023-04-05T03:22:42.545Z,102325.34
2023-04-05T03:25:09.591Z,102318.44
2023-04-05T03:27:36.862Z,102318.53
2023-04-05T03:30:06.504Z,102328.19
2023-04-05T03:32:33.269Z,102326.50
2023-04-05T03:35:03.325Z,102324.06
2023-04-05T03:37:30.081Z,102318.00
2023-04-05T03:39:56.882Z,102314.63
2023-04-05T03:42:23.719Z,102316.41
2023-04-05T03:44:53.404Z,102314.72
2023-04-05T03:47:21.779Z,102313.97
2023-04-05T03:49:48.594Z,102314.91
2023-04-05T03:52:15.351Z,102308.00
2023-04-05T03:54:42.338Z,102308.00
2023-04-05T03:57:09.107Z,102309.78
2023-04-05T03:59:36.048Z,102312.50
2023-04-05T04:02:03.242Z,102312.59
2023-04-05T04:04:31.587Z,102321.50
2023-04-05T04:06:58.417Z,102311.13
2023-04-05T04:09:25.261Z,102314.69
2023-04-05T04:11:52.201Z,102315.53
2023-04-05T04:14:18.907Z,102308.59
2023-04-05T04:16:45.879Z,102311.22
2023-04-05T04:19:12.877Z,102305.97
2023-04-05T04:21:44.981Z,102307.84
2023-04-05T04:24:18.759Z,102300.91
2023-04-05T04:26:46.040Z,102305.22
2023-04-05T04:29:13.002Z,102306.16
2023-04-05T04:31:40.292Z,102307.84
2023-04-05T04:34:07.185Z,102311.31
2023-04-05T04:36:36.394Z,102311.31
2023-04-05T04:39:08.089Z,102306.06
2023-04-05T04:41:36.111Z,102305.22
2023-04-05T04:44:03.232Z,102301.75
2023-04-05T04:46:34.736Z,102306.16
2023-04-05T04:49:06.049Z,102303.00
2023-04-05T04:51:33.374Z,102301.22
2023-04-05T04:54:00.200Z,102298.69
2023-04-05T04:56:28.396Z,102299.63
2023-04-05T04:58:56.507Z,102304.34
2023-04-05T05:01:25.301Z,102304.34
2023-04-05T05:03:52.434Z,102296.78
2023-04-05T05:06:24.855Z,102304.00
2023-04-05T05:08:51.768Z,102293.81
2023-04-05T05:11:22.016Z,102297.38
2023-04-05T05:13:53.142Z,102299.16
2023-04-05T05:16:22.610Z,102294.81
2023-04-05T05:18:51.099Z,102300.09
2023-04-05T05:21:17.917Z,102297.66
2023-04-05T05:23:44.881Z,102304.59
2023-04-05T05:26:13.370Z,102297.53
2023-04-05T05:28:40.671Z,102305.44
2023-04-05T05:31:09.030Z,102300.09
2023-04-05T05:33:35.777Z,102301.03
2023-04-05T05:36:04.136Z,102305.34
2023-04-05T05:38:31.200Z,102301.88
2023-04-05T05:40:58.774Z,102300.84
2023-04-05T05:43:25.650Z,102305.25
2023-04-05T05:45:52.626Z,102298.22
2023-04-05T05:48:20.912Z,102298.00
2023-04-05T05:50:49.122Z,102297.06
2023-04-05T05:53:16.507Z,102299.59
2023-04-05T05:55:43.806Z,102301.28
2023-04-05T05:58:13.746Z,102299.50
2023-04-05T06:00:41.209Z,102299.28
2023-04-05T06:03:08.229Z,102302.66
2023-04-05T06:05:36.706Z,102303.41
2023-04-05T06:08:03.998Z,102293.75
2023-04-05T06:10:31.127Z,102297.00
2023-04-05T06:12:57.941Z,102296.06
2023-04-05T06:15:24.881Z,102298.59
2023-04-05T06:17:52.051Z,102306.16
2023-04-05T06:20:19.465Z,102302.59
2023-04-05T06:22:48.288Z,102305.88
2023-04-05T06:25:17.712Z,102292.59
2023-04-05T06:27:44.941Z,102303.78
2023-04-05T06:30:12.981Z,102302.75
2023-04-05T06:32:39.805Z,102289.38
2023-04-05T06:35:08.837Z,102295.38
2023-04-05T06:37:35.809Z,102298.75
2023-04-05T06:40:07.304Z,102306.41
2023-04-05T06:42:34.005Z,102303.59
2023-04-05T06:45:00.742Z,102309.56
2023-04-05T06:47:28.627Z,102312.00
2023-04-05T06:49:56.074Z,102306.56
2023-04-05T06:52:22.879Z,102313.28
2023-04-05T06:54:49.702Z,102317.38
2023-04-05T06:57:18.275Z,102317.09
2023-04-05T06:59:45.373Z,102312.44
2023-04-05T07:02:12.319Z,102313.94
2023-04-05T07:04:39.175Z,102320.56
2023-04-05T07:07:06.990Z,102311.63
2023-04-05T07:09:33.868Z,102320.03
2023-04-05T07:12:02.871Z,102316.22
2023-04-05T07:14:31.939Z,102318.56
2023-04-05T07:16:58.797Z,102315.59
2023-04-05T07:19:26.341Z,102311.00
2023-04-05T07:21:53.382Z,102307.28
2023-04-05T07:24:20.621Z,102316.66
2023-04-05T07:26:47.452Z,102313.91
2023-04-05T07:29:14.313Z,102312.84
2023-04-05T07:31:46.783Z,102308.25
2023-04-05T07:34:14.437Z,102311.03
2023-04-05T07:36:41.928Z,102308.81
2023-04-05T07:39:09.843Z,102304.91
2023-04-05T07:41:37.146Z,102306.38
2023-04-05T07:44:04.245Z,102303.53
2023-04-05T07:46:31.069Z,102304.16
2023-04-05T07:48:59.528Z,102299.50
2023-04-05T07:51:27.436Z,102311.28
2023-04-05T07:53:54.423Z,102306.53
2023-04-05T07:56:33.850Z,102305.16
2023-04-05T07:59:02.851Z,102301.22
2023-04-05T08:01:30.884Z,102296.44
2023-04-05T08:03:59.273Z,102303.69
2023-04-05T08:06:27.538Z,102301.66
2023-04-05T08:08:54.390Z,102298.47
2023-04-05T08:11:21.614Z,102297.28
2023-04-05T08:13:48.881Z,102302.00
2023-04-05T08:16:15.799Z,102292.69
2023-04-05T08:18:43.906Z,102297.59
2023-04-05T08:21:12.139Z,102302.31
2023-04-05T08:23:39.303Z,102290.59
2023-04-05T08:26:07.893Z,102296.25
2023-04-05T08:28:34.928Z,102293.72
2023-04-05T08:31:01.989Z,102293.03
2023-04-05T08:33:34.527Z,102290.03
2023-04-05T08:36:06.246Z,102286.22
2023-04-05T08:38:40.194Z,102294.53
2023-04-05T08:41:14.428Z,102292.38
2023-04-05T08:43:51.616Z,102294.53
2023-04-05T08:46:20.202Z,102294.06
2023-04-05T08:48:47.215Z,102295.25
2023-04-05T08:51:14.120Z,102284.09
2023-04-05T08:53:43.661Z,102291.41
2023-04-05T08:56:15.573Z,102285.53
2023-04-05T08:58:51.149Z,102288.41
2023-04-05T09:01:19.878Z,102279.25
2023-04-05T09:03:50.373Z,102283.34
2023-04-05T09:06:18.474Z,102283.59
2023-04-05T09:08:49.878Z,102278.78
2023-04-05T09:11:17.117Z,102286.19
2023-04-05T09:13:45.615Z,102276.94
2023-04-05T09:16:14.966Z,102277.16
2023-04-05T09:18:44.292Z,102281.94
2023-04-05T09:21:11.736Z,102279.78
2023-04-05T09:23:54.444Z,102282.75
2023-04-05T09:26:22.659Z,102279.72
2023-04-05T09:28:50.153Z,102280.78
2023-04-05T09:31:34.450Z,102281.09
2023-04-05T09:34:04.574Z,102277.94
2023-04-05T09:36:34.366Z,102269.63
2023-04-05T09:39:14.057Z,102266.50
2023-04-05T09:41:41.248Z,102261.38
2023-04-05T09:44:08.605Z,102262.69
2023-04-05T09:46:39.605Z,102268.16
2023-04-05T09:49:09.526Z,102268.47
2023-04-05T09:51:40.802Z,102260.13
2023-04-05T09:54:16.732Z,102260.56
2023-04-05T09:56:59.013Z,102265.09
2023-04-05T09:59:32.000Z,102260.94
2023-04-05T10:02:08.139Z,102257.75
2023-04-05T10:04:42.032Z,102256.97
2023-04-05T10:07:15.234Z,102250.31
2023-04-05T10:09:47.661Z,102253.97
2023-04-05T10:12:28.026Z,102253.28
2023-04-05T10:15:08.823Z,102249.16
2023-04-05T10:17:50.225Z,102245.00
2023-04-05T10:20:19.693Z,102234.41
2023-04-05T10:23:04.528Z,102238.47
2023-04-05T10:25:53.244Z,102233.47
2023-04-05T10:28:33.067Z,102232.06
2023-04-05T10:31:13.282Z,102230.66
2023-04-05T10:33:47.850Z,102224.97
2023-04-05T10:36:27.478Z,102219.25
2023-04-05T10:39:06.471Z,102214.34
2023-04-05T10:41:43.198Z,102216.31
2023-04-05T10:44:25.646Z,102219.41
2023-04-05T10:46:58.753Z,102212.56
2023-04-05T10:49:33.849Z,102206.53
2023-04-05T10:52:01.813Z,102201.50
2023-04-05T10:54:34.056Z,102207.34
2023-04-05T10:57:10.244Z,102201.91
2023-04-05T10:59:43.344Z,102197.13
2023-04-05T11:02:18.854Z,102193.09
2023-04-05T11:04:46.877Z,102192.53
2023-04-05T11:07:16.182Z,102182.31
2023-04-05T11:10:02.543Z,102194.00
2023-04-05T11:13:08.287Z,102182.94
2023-04-05T11:15:37.085Z,102182.53
2023-04-05T11:18:06.146Z,102182.66
2023-04-05T11:20:56.366Z,102175.91
2023-04-05T11:23:53.606Z,102175.31
2023-04-05T11:26:34.402Z,102170.13
2023-04-05T11:29:01.469Z,102176.38
2023-04-05T11:31:30.752Z,102167.38
2023-04-05T11:34:19.020Z,102170.75
2023-04-05T11:36:49.208Z,102165.38
2023-04-05T11:39:31.036Z,102161.03
2023-04-05T11:42:07.485Z,102159.47
2023-04-05T11:44:48.603Z,102151.56
2023-04-05T11:47:22.305Z,102153.44
2023-04-05T11:49:54.645Z,102142.66
2023-04-05T11:52:28.792Z,102147.38
2023-04-05T11:55:03.885Z,102139.81
2023-04-05T11:57:40.573Z,102131.91
2023-04-05T12:00:11.947Z,102132.97
2023-04-05T12:02:44.349Z,102130.28
2023-04-05T12:07:54.694Z,102132.69
2023-04-05T12:10:27.015Z,102130.25
2023-04-05T12:13:06.467Z,102125.16
2023-04-05T12:15:38.988Z,102120.38
2023-04-05T12:18:14.341Z,102124.38
2023-04-05T12:20:41.978Z,102114.09
2023-04-05T12:23:11.715Z,102111.63
2023-04-05T12:25:43.537Z,102109.03
2023-04-05T12:28:12.918Z,102111.38
2023-04-05T12:30:49.140Z,102112.06
2023-04-05T12:33:26.634Z,102106.75
2023-04-05T12:35:58.582Z,102103.06
2023-04-05T12:41:27.588Z,102102.91
2023-04-05T12:44:02.011Z,102093.78
2023-04-05T12:46:40.152Z,102094.00
2023-04-05T12:49:10.415Z,102079.03
2023-04-05T12:51:41.428Z,102083.72
2023-04-05T12:54:08.666Z,102067.09
2023-04-05T12:56:40.827Z,102067.28
2023-04-05T12:59:15.329Z,102070.31
2023-04-05T13:01:45.338Z,102063.69
2023-04-05T13:04:16.692Z,102056.88
2023-04-05T13:06:48.274Z,102064.41
2023-04-05T13:09:15.249Z,102060.25
2023-04-05T13:11:44.784Z,102063.25
2023-04-05T13:14:24.227Z,102061.09
2023-04-05T13:16:54.025Z,102050.25
2023-04-05T13:19:22.503Z,102047.28
2023-04-05T13:21:49.752Z,102048.59
2023-04-05T13:24:18.122Z,102053.78
2023-04-05T13:26:48.040Z,102049.63
2023-04-05T13:29:15.082Z,102054.13
2023-04-05T13:31:43.338Z,102047.47
2023-04-05T13:34:10.587Z,102039.81
2023-04-05T13:36:40.832Z,102038.31
2023-04-05T13:39:09.148Z,102036.16
2023-04-05T13:41:39.350Z,102030.63
2023-04-05T13:44:06.930Z,102023.97
2023-04-05T13:46:33.908Z,102024.66
2023-04-05T13:49:02.210Z,102017.47
2023-04-05T13:51:34.346Z,102023.28
2023-04-05T13:54:02.174Z,102024.13
2023-04-05T13:56:30.330Z,102023.81
2023-04-05T13:58:57.701Z,102017.44
2023-04-05T14:01:27.240Z,102015.81
2023-04-05T14:03:56.976Z,102003.13
2023-04-05T14:06:25.574Z,102009.28
2023-04-05T14:08:55.270Z,102004.25
2023-04-05T14:11:22.971Z,102004.78
2023-04-05T14:13:52.488Z,102001.13
2023-04-05T14:16:19.481Z,102002.09
2023-04-05T14:18:47.789Z,102004.25
2023-04-05T14:21:15.054Z,101989.28
2023-04-05T14:23:43.460Z,101985.28
2023-04-05T14:26:11.141Z,101983.75
2023-04-05T14:28:38.872Z,101978.75
2023-04-05T14:31:05.692Z,101978.91
2023-04-05T14:33:32.461Z,101983.25
2023-04-05T14:35:59.234Z,101970.56
2023-04-05T14:38:26.169Z,101966.88
2023-04-05T14:41:49.356Z,101959.38
2023-04-05T14:44:22.827Z,101969.88
2023-04-05T14:46:52.415Z,101967.41
2023-04-05T14:49:19.493Z,101967.41
2023-04-05T14:51:47.213Z,101967.41
2023-04-05T14:54:14.053Z,101956.53
2023-04-05T14:56:40.842Z,101957.19
2023-04-05T14:59:07.777Z,101952.34
2023-04-05T15:01:37.283Z,101953.84
2023-04-05T15:04:04.409Z,101945.81
2023-04-05T15:06:31.405Z,101941.16
2023-04-05T15:08:58.301Z,101942.31
2023-04-05T15:11:25.473Z,101941.00
2023-04-05T15:13:52.172Z,101941.84
2023-04-05T15:16:18.999Z,101941.00
2023-04-05T15:18:49.118Z,101931.34
2023-04-05T15:21:16.292Z,101935.84
2023-04-05T15:23:43.104Z,101938.69
2023-04-05T15:26:10.346Z,101932.88
2023-04-05T15:28:37.195Z,101936.38
2023-04-05T15:31:06.703Z,101934.53
2023-04-05T15:33:33.660Z,101933.03
2023-04-05T15:36:01.893Z,101924.19
2023-04-05T15:38:29.777Z,101925.41
2023-04-05T15:40:57.988Z,101921.38
2023-04-05T15:43:27.156Z,101919.72
2023-04-05T15:45:53.963Z,101916.41
2023-04-05T15:48:20.951Z,101920.72
2023-04-05T15:50:48.194Z,101911.25
2023-04-05T15:53:16.310Z,101904.25
2023-04-05T15:55:43.187Z,101911.56
2023-04-05T15:58:09.848Z,101906.06
2023-04-05T16:00:36.733Z,101913.25
2023-04-05T16:03:03.823Z,101903.72
2023-04-05T16:05:33.629Z,101907.59
2023-04-05T16:08:00.453Z,101897.94
2023-04-05T16:10:28.685Z,101898.94
2023-04-05T16:13:00.554Z,101899.09
2023-04-05T16:15:28.303Z,101899.91
2023-04-05T16:17:55.210Z,101899.44
2023-04-05T16:20:29.306Z,101900.78
2023-04-05T16:22:56.424Z,101902.97
2023-04-05T16:25:23.373Z,101897.28
2023-04-05T16:27:52.296Z,101893.16
2023-04-05T16:30:19.219Z,101883.81
2023-04-05T16:32:46.421Z,101880.50
2023-04-05T16:35:24.746Z,101882.50
2023-04-05T16:37:53.436Z,101885.50
2023-04-05T16:40:21.760Z,101884.19
2023-04-05T16:42:48.502Z,101882.69
2023-04-05T16:45:17.285Z,101878.53
2023-04-05T16:47:44.168Z,101885.84
2023-04-05T16:50:11.152Z,101879.22
2023-04-05T16:52:39.002Z,101877.88
2023-04-05T16:55:07.035Z,101872.22
2023-04-05T16:57:36.758Z,101873.53
2023-04-05T17:00:06.022Z,101875.88
2023-04-05T17:02:35.451Z,101881.06
2023-04-05T17:05:02.465Z,101882.56
2023-04-05T17:07:29.774Z,101879.38
2023-04-05T17:09:58.470Z,101879.75
2023-04-05T17:12:25.557Z,101876.88
2023-04-05T17:14:52.608Z,101881.69
2023-04-05T17:17:19.434Z,101882.19
2023-04-05T17:19:47.926Z,101874.69
2023-04-05T17:22:15.082Z,101869.03
2023-04-05T17:24:43.370Z,101867.88
2023-04-05T17:27:10.760Z,101871.69
2023-04-05T17:30:02.320Z,101868.84
2023-04-05T17:32:32.267Z,101875.50
2023-04-05T17:35:00.601Z,101869.50
2023-04-05T17:37:27.417Z,101868.19
2023-04-05T17:39:54.681Z,101870.00
2023-04-05T17:42:22.394Z,101873.13
2023-04-05T17:44:49.432Z,101870.81
2023-04-05T17:47:18.973Z,101873.16
2023-04-05T17:49:46.470Z,101874.44
2023-04-05T17:52:19.065Z,101879.59
2023-04-05T17:54:45.887Z,101873.94
2023-04-05T17:57:15.774Z,101872.75
2023-04-05T17:59:45.241Z,101872.22
2023-04-05T18:02:13.180Z,101879.88
2023-04-05T18:04:41.246Z,101879.69
2023-04-05T18:07:10.429Z,101882.97
2023-04-05T18:09:42.065Z,101882.59
2023-04-05T18:12:12.538Z,101879.75
2023-04-05T18:14:43.409Z,101879.41
2023-04-05T18:17:11.617Z,101883.69
2023-04-05T18:19:38.319Z,101887.13
2023-04-05T18:22:05.151Z,101893.91
2023-04-05T18:24:34.269Z,101887.38
2023-04-05T18:27:02.512Z,101891.66
2023-04-05T18:29:30.927Z,101886.81
2023-04-05T18:31:58.894Z,101893.41
2023-04-05T18:34:27.572Z,101892.19
2023-04-05T18:36:55.762Z,101892.81
2023-04-05T18:39:26.894Z,101893.28
2023-04-05T18:41:55.280Z,101892.22
2023-04-05T18:44:23.643Z,101897.47
2023-04-05T18:46:51.266Z,101885.78
2023-04-05T18:49:20.598Z,101894.22
2023-04-05T18:51:50.477Z,101895.97
2023-04-05T18:54:18.605Z,101897.72
2023-04-05T18:56:46.092Z,101898.59
2023-04-05T18:59:13.761Z,101898.56
2023-04-05T19:01:42.123Z,101902.63
2023-04-05T19:04:11.710Z,101903.06
2023-04-05T19:06:38.504Z,101905.03
2023-04-05T19:09:06.296Z,101904.66
2023-04-05T19:11:33.443Z,101905.13
2023-04-05T19:14:03.854Z,101907.53
2023-04-05T19:16:31.128Z,101904.78
2023-04-05T19:19:03.882Z,101897.41
2023-04-05T19:21:33.094Z,101909.28
2023-04-05T19:24:02.817Z,101913.38
2023-04-05T19:26:34.774Z,101909.50
2023-04-05T19:29:09.105Z,101909.06
2023-04-05T19:31:37.589Z,101915.66
2023-04-05T19:34:45.505Z,101907.59
2023-04-05T19:37:13.550Z,101914.44
2023-04-05T19:39:40.783Z,101915.72
2023-04-05T19:42:07.851Z,101915.63
2023-04-05T19:44:50.487Z,101912.72
2023-04-05T19:47:27.128Z,101913.81
2023-04-05T19:50:00.158Z,101908.09
2023-04-05T19:52:48.522Z,101900.84
2023-04-05T19:55:32.314Z,101903.25
2023-04-05T19:58:12.687Z,101903.69
2023-04-05T20:00:55.256Z,101904.22
2023-04-05T20:03:29.584Z,101903.81
2023-04-05T20:06:38.223Z,101903.56
2023-04-05T20:09:17.541Z,101904.81
2023-04-05T20:12:00.489Z,101902.03
2023-04-05T20:14:35.633Z,101900.63
2023-04-05T20:17:10.463Z,101900.75
2023-04-05T20:19:42.188Z,101897.84
2023-04-05T20:22:10.143Z,101892.13
2023-04-05T20:24:40.877Z,101895.22
2023-04-05T20:27:08.208Z,101895.59
2023-04-05T20:29:36.391Z,101889.06
2023-04-05T20:32:08.912Z,101895.63
2023-04-05T20:34:38.271Z,101884.59
2023-04-05T20:37:11.318Z,101886.81
2023-04-05T20:39:40.522Z,101882.81
2023-04-05T20:42:09.760Z,101883.91
2023-04-05T20:44:45.962Z,101883.47
2023-04-05T20:47:26.692Z,101881.22
2023-04-05T20:49:57.499Z,101885.38
2023-04-05T20:52:28.287Z,101880.53
2023-04-05T20:55:00.436Z,101879.13
2023-04-05T20:57:37.547Z,101876.88
2023-04-05T21:00:08.237Z,101876.47
2023-04-05T21:02:36.584Z,101873.25
2023-04-05T21:05:04.119Z,101876.28
2023-04-05T21:07:34.407Z,101866.84
2023-04-05T21:10:03.521Z,101862.66
2023-04-05T21:12:32.659Z,101860.25
2023-04-05T21:15:03.454Z,101863.06
2023-04-05T21:17:36.195Z,101855.41
2023-04-05T21:20:04.860Z,101850.25
2023-04-05T21:22:33.758Z,101854.97
2023-04-05T21:25:04.009Z,101856.19
2023-04-05T21:27:31.896Z,101856.59
2023-04-05T21:29:58.954Z,101849.09
2023-04-05T21:32:27.116Z,101850.44
2023-04-05T21:34:54.030Z,101850.59
2023-04-05T21:37:22.413Z,101853.47
2023-04-05T21:39:49.511Z,101856.25
2023-04-05T21:42:19.649Z,101851.38
2023-04-05T21:44:47.957Z,101849.81
2023-04-05T21:47:17.663Z,101849.25
2023-04-05T21:49:45.540Z,101853.84
2023-04-05T21:52:12.245Z,101852.44
2023-04-05T21:54:39.254Z,101854.25
2023-04-05T21:57:06.274Z,101856.28
2023-04-05T21:59:38.160Z,101857.38
2023-04-05T22:02:06.608Z,101851.66
2023-04-05T22:04:33.675Z,101853.75
2023-04-05T22:07:00.815Z,101851.34
2023-04-05T22:09:28.666Z,101845.34
2023-04-05T22:11:55.903Z,101852.59
2023-04-05T22:14:22.654Z,101850.91
2023-04-05T22:16:50.845Z,101846.72
2023-04-05T22:19:17.631Z,101850.59
2023-04-05T22:21:44.500Z,101848.19
2023-04-05T22:24:17.429Z,101850.28
2023-04-05T22:26:44.207Z,101848.81
2023-04-05T22:29:11.147Z,101845.59
2023-04-05T22:31:37.984Z,101842.13
2023-04-05T22:34:06.392Z,101840.56
2023-04-05T22:36:33.353Z,101836.53
2023-04-05T22:39:00.121Z,101842.91
2023-04-05T22:41:28.351Z,101837.91
2023-04-05T22:43:55.075Z,101838.97
2023-04-05T22:46:21.938Z,101838.38
2023-04-05T22:48:48.714Z,101837.81
2023-04-05T22:51:17.086Z,101839.16
2023-04-05T22:53:43.988Z,101829.81
2023-04-05T22:56:10.689Z,101835.34
2023-04-05T22:58:37.708Z,101833.81
2023-04-05T23:01:04.618Z,101829.50
2023-04-05T23:04:09.125Z,101829.59
2023-04-05T23:06:37.343Z,101828.19
2023-04-05T23:09:04.861Z,101819.69
2023-04-05T23:11:31.695Z,101812.16
2023-04-05T23:13:58.523Z,101815.75
2023-04-05T23:16:25.757Z,101816.03
2023-04-05T23:18:52.595Z,101812.78
2023-04-05T23:21:19.350Z,101811.38
2023-04-05T23:23:47.463Z,101811.50
2023-04-05T23:26:14.146Z,101806.47
2023-04-05T23:28:41.101Z,101809.38
2023-04-05T23:31:07.887Z,101805.19
2023-04-05T23:33:34.767Z,101802.81
2023-04-05T23:36:01.580Z,101801.97
2023-04-05T23:38:28.305Z,101801.25
2023-04-05T23:41:02.625Z,101797.91
2023-04-05T23:43:29.351Z,101791.22
2023-04-05T23:45:56.396Z,101795.88
2023-04-05T23:48:23.076Z,101784.78
2023-04-05T23:50:49.784Z,101794.59
2023-04-05T23:53:16.461Z,101782.50
2023-04-05T23:55:43.134Z,101781.66
2023-04-05T23:58:11.359Z,101786.13
